createdAt,value
2017-11-29T00:01:29.127Z,15.95
2017-11-29T00:03:55.402Z,17.00
2017-11-29T00:06:21.636Z,14.85
2017-11-29T00:08:47.911Z,14.68
2017-11-29T00:11:14.191Z,14.63
2017-11-29T00:13:40.443Z,13.82
2017-11-29T00:16:07.057Z,13.60
2017-11-29T00:18:33.287Z,13.40
2017-11-29T00:20:59.530Z,12.13
2017-11-29T00:23:26.151Z,14.20
2017-11-29T00:25:52.774Z,13.50
2017-11-29T00:28:19.006Z,13.10
2017-11-29T00:30:45.227Z,14.15
2017-11-29T00:33:11.476Z,12.50
2017-11-29T00:35:37.736Z,13.38
2017-11-29T00:38:03.980Z,12.65
2017-11-29T00:40:30.251Z,12.40
2017-11-29T00:42:56.501Z,11.73
2017-11-29T00:45:23.129Z,12.25
2017-11-29T00:47:49.339Z,10.60
2017-11-29T00:50:15.593Z,9.50
2017-11-29T00:52:41.830Z,10.25
2017-11-29T00:55:08.099Z,10.55
2017-11-29T00:57:34.340Z,12.45
2017-11-29T01:00:00.624Z,12.48
2017-11-29T01:02:26.922Z,11.40
2017-11-29T01:04:53.211Z,12.23
2017-11-29T01:07:19.441Z,10.90
2017-11-29T01:09:45.658Z,12.18
2017-11-29T01:12:11.914Z,12.85
2017-11-29T01:14:38.155Z,11.07
2017-11-29T01:17:04.396Z,10.82
2017-11-29T01:19:30.596Z,10.45
2017-11-29T01:21:56.841Z,10.00
2017-11-29T01:24:23.068Z,11.82
2017-11-29T01:26:49.300Z,10.38
2017-11-29T01:29:15.506Z,9.55
2017-11-29T01:31:41.755Z,11.80
2017-11-29T01:34:07.988Z,13.18
2017-11-29T01:36:34.204Z,13.02
2017-11-29T01:39:00.504Z,13.18
2017-11-29T01:41:26.735Z,12.35
2017-11-29T01:43:52.997Z,13.27
2017-11-29T01:46:19.255Z,13.80
2017-11-29T01:48:45.533Z,12.40
2017-11-29T01:51:11.797Z,13.30
2017-11-29T01:53:38.415Z,12.88
2017-11-29T01:56:04.624Z,11.30
2017-11-29T01:58:30.870Z,11.20
2017-11-29T02:00:57.127Z,11.05
2017-11-29T02:03:23.728Z,11.93
2017-11-29T02:05:50.324Z,11.50
2017-11-29T02:08:16.568Z,13.15
2017-11-29T02:10:42.804Z,12.23
2017-11-29T02:13:09.052Z,12.02
2017-11-29T02:15:35.269Z,12.75
2017-11-29T02:18:01.505Z,11.20
2017-11-29T02:20:27.755Z,13.70
2017-11-29T02:22:54.859Z,13.82
2017-11-29T02:25:21.105Z,11.93
2017-11-29T02:27:47.374Z,10.38
2017-11-29T02:30:13.643Z,10.93
2017-11-29T02:32:39.897Z,11.02
2017-11-29T02:35:06.133Z,10.70
2017-11-29T02:37:32.403Z,11.15
2017-11-29T02:40:10.766Z,10.57
2017-11-29T02:42:38.869Z,11.30
2017-11-29T02:45:05.122Z,10.38
2017-11-29T02:47:31.424Z,11.15
2017-11-29T02:49:58.064Z,11.45
2017-11-29T02:52:24.705Z,11.20
2017-11-29T02:54:51.332Z,13.55
2017-11-29T02:57:17.584Z,11.73
2017-11-29T02:59:44.202Z,11.05
2017-11-29T03:02:10.834Z,11.43
2017-11-29T03:04:37.043Z,9.82
2017-11-29T03:07:03.330Z,9.45
2017-11-29T03:09:29.521Z,10.55
2017-11-29T03:11:55.750Z,10.73
2017-11-29T03:14:22.335Z,10.07
2017-11-29T03:16:48.558Z,9.15
2017-11-29T03:19:14.883Z,10.13
2017-11-29T03:21:41.127Z,9.90
2017-11-29T03:24:07.345Z,9.52
2017-11-29T03:26:33.610Z,9.15
2017-11-29T03:28:59.826Z,8.77
2017-11-29T03:31:26.071Z,9.40
2017-11-29T03:33:52.290Z,8.60
2017-11-29T03:36:18.536Z,9.15
2017-11-29T03:38:44.750Z,9.13
2017-11-29T03:41:11.520Z,8.80
2017-11-29T03:43:38.095Z,7.93
2017-11-29T03:46:04.327Z,8.80
2017-11-29T03:48:30.571Z,8.20
2017-11-29T03:50:56.830Z,9.45
2017-11-29T03:53:23.431Z,10.85
2017-11-29T03:55:49.637Z,10.45
2017-11-29T03:58:15.850Z,15.38
2017-11-29T04:00:42.118Z,12.82
2017-11-29T04:03:08.350Z,13.13
2017-11-29T04:05:34.602Z,10.50
2017-11-29T04:08:00.884Z,11.45
2017-11-29T04:10:27.147Z,10.20
2017-11-29T04:12:53.375Z,10.95
2017-11-29T04:15:19.653Z,11.50
2017-11-29T04:17:45.921Z,10.68
2017-11-29T04:20:12.175Z,10.55
2017-11-29T04:22:38.447Z,11.57
2017-11-29T04:25:04.724Z,11.00
2017-11-29T04:27:30.986Z,10.70
2017-11-29T04:29:57.589Z,10.27
2017-11-29T04:32:23.833Z,11.77
2017-11-29T04:34:50.460Z,14.02
2017-11-29T04:37:16.741Z,11.80
2017-11-29T04:39:42.971Z,12.45
2017-11-29T04:42:09.217Z,11.65
2017-11-29T04:44:35.439Z,10.57
2017-11-29T04:47:01.666Z,10.27
2017-11-29T04:49:27.929Z,11.68
2017-11-29T04:51:54.225Z,12.05
2017-11-29T04:54:20.513Z,12.05
2017-11-29T04:56:47.133Z,11.60
2017-11-29T04:59:13.408Z,10.25
2017-11-29T05:01:39.666Z,11.95
2017-11-29T05:04:05.908Z,15.50
2017-11-29T05:06:32.228Z,12.30
2017-11-29T05:08:58.530Z,11.88
2017-11-29T05:11:24.804Z,11.75
2017-11-29T05:13:51.106Z,10.93
2017-11-29T05:16:17.416Z,11.45
2017-11-29T05:18:43.677Z,11.65
2017-11-29T05:21:09.968Z,13.00
2017-11-29T05:23:36.231Z,13.02
2017-11-29T05:26:02.533Z,10.65
2017-11-29T05:28:28.798Z,11.65
2017-11-29T05:30:55.060Z,10.20
2017-11-29T05:33:21.747Z,11.38
2017-11-29T05:35:48.011Z,12.50
2017-11-29T05:38:14.288Z,10.90
2017-11-29T05:40:40.574Z,11.07
2017-11-29T05:43:07.224Z,11.38
2017-11-29T05:45:33.873Z,10.55
2017-11-29T05:48:00.154Z,11.05
2017-11-29T05:50:26.412Z,12.85
2017-11-29T05:52:52.658Z,12.20
2017-11-29T05:55:18.921Z,12.23
2017-11-29T05:57:45.198Z,13.15
2017-11-29T06:00:11.872Z,14.35
2017-11-29T06:02:38.130Z,13.62
2017-11-29T06:05:04.386Z,15.10
2017-11-29T06:07:30.698Z,12.75
2017-11-29T06:09:57.022Z,16.75
2017-11-29T06:12:23.362Z,11.25
2017-11-29T06:14:49.606Z,11.82
2017-11-29T06:17:16.263Z,9.63
2017-11-29T06:19:42.922Z,12.52
2017-11-29T06:22:09.203Z,12.43
2017-11-29T06:24:35.465Z,10.43
2017-11-29T06:27:01.737Z,12.32
2017-11-29T06:29:27.998Z,12.88
2017-11-29T06:31:54.605Z,11.95
2017-11-29T06:34:20.902Z,12.32
2017-11-29T06:36:47.129Z,11.90
2017-11-29T06:39:13.414Z,10.65
2017-11-29T06:41:39.666Z,12.27
2017-11-29T06:44:05.897Z,9.85
2017-11-29T06:46:32.142Z,11.65
2017-11-29T06:48:58.401Z,11.40
2017-11-29T06:51:24.620Z,10.80
2017-11-29T06:53:50.933Z,12.35
2017-11-29T06:56:17.164Z,11.10
2017-11-29T06:58:43.470Z,12.40
2017-11-29T07:01:09.739Z,12.88
2017-11-29T07:03:35.981Z,12.35
2017-11-29T07:06:02.310Z,13.52
2017-11-29T07:08:28.612Z,12.65
2017-11-29T07:10:54.851Z,12.10
2017-11-29T07:13:21.123Z,15.38
2017-11-29T07:15:47.721Z,13.10
2017-11-29T07:18:13.961Z,12.25
2017-11-29T07:20:40.178Z,14.18
2017-11-29T07:23:06.468Z,13.02
2017-11-29T07:25:32.747Z,14.32
2017-11-29T07:27:59.010Z,28.40
2017-11-29T07:30:25.287Z,31.23
2017-11-29T07:32:51.525Z,18.98
2017-11-29T07:35:17.796Z,13.90
2017-11-29T07:37:44.046Z,12.57
2017-11-29T07:40:10.288Z,13.57
2017-11-29T07:42:36.510Z,12.60
2017-11-29T07:45:02.754Z,12.88
2017-11-29T07:47:29.024Z,11.55
2017-11-29T07:49:55.227Z,11.70
2017-11-29T07:52:21.495Z,12.37
2017-11-29T07:54:47.727Z,11.63
2017-11-29T07:57:13.953Z,13.93
2017-11-29T07:59:40.852Z,12.55
2017-11-29T08:02:07.127Z,12.57
2017-11-29T08:04:33.718Z,12.90
2017-11-29T08:06:59.960Z,13.77
2017-11-29T08:09:26.236Z,13.75
2017-11-29T08:11:52.532Z,17.48
2017-11-29T08:14:18.771Z,16.10
2017-11-29T08:16:45.363Z,13.62
2017-11-29T08:19:11.632Z,12.13
2017-11-29T08:21:38.296Z,12.45
2017-11-29T08:24:04.569Z,16.05
2017-11-29T08:26:30.848Z,13.75
2017-11-29T08:28:57.487Z,14.05
2017-11-29T08:31:23.774Z,15.65
2017-11-29T08:33:50.063Z,13.90
2017-11-29T08:36:16.318Z,14.02
2017-11-29T08:38:42.571Z,15.05
2017-11-29T08:41:08.837Z,13.35
2017-11-29T08:43:35.124Z,16.83
2017-11-29T08:46:01.394Z,15.45
2017-11-29T08:48:27.696Z,15.85
2017-11-29T08:50:54.353Z,16.08
2017-11-29T08:53:20.998Z,16.42
2017-11-29T08:55:47.270Z,17.85
2017-11-29T08:58:13.578Z,17.48
2017-11-29T09:00:39.841Z,16.12
2017-11-29T09:03:06.123Z,14.45
2017-11-29T09:05:32.356Z,14.40
2017-11-29T09:07:58.688Z,15.30
2017-11-29T09:10:24.950Z,15.13
2017-11-29T09:12:51.219Z,16.20
2017-11-29T09:15:17.847Z,13.32
2017-11-29T09:17:44.476Z,13.75
2017-11-29T09:20:10.744Z,15.60
2017-11-29T09:22:37.024Z,15.73
2017-11-29T09:25:03.296Z,19.50
2017-11-29T09:27:29.587Z,13.77
2017-11-29T09:29:55.842Z,13.75
2017-11-29T09:32:22.479Z,12.45
2017-11-29T09:34:49.116Z,13.62
2017-11-29T09:37:15.749Z,14.63
2017-11-29T09:39:42.385Z,12.20
2017-11-29T09:42:09.022Z,10.02
2017-11-29T09:44:35.671Z,11.23
2017-11-29T09:47:01.997Z,9.23
2017-11-29T09:49:28.298Z,9.95
2017-11-29T09:51:54.554Z,9.23
2017-11-29T09:54:21.231Z,10.55
2017-11-29T09:56:47.580Z,10.18
2017-11-29T09:59:13.866Z,10.10
2017-11-29T10:01:40.091Z,11.90
2017-11-29T10:04:06.427Z,13.23
2017-11-29T10:06:32.702Z,11.35
2017-11-29T10:08:59.012Z,10.65
2017-11-29T10:11:25.327Z,12.52
2017-11-29T10:13:51.609Z,10.73
2017-11-29T10:16:17.874Z,9.63
2017-11-29T10:18:44.131Z,10.48
2017-11-29T10:21:10.464Z,10.60
2017-11-29T10:23:36.741Z,8.98
2017-11-29T10:26:03.361Z,7.70
2017-11-29T10:28:29.619Z,9.65
2017-11-29T10:30:55.886Z,8.60
2017-11-29T10:33:22.160Z,9.93
2017-11-29T10:35:48.438Z,11.63
2017-11-29T10:38:14.732Z,9.75
2017-11-29T10:40:41.007Z,8.65
2017-11-29T10:43:07.260Z,8.40
2017-11-29T10:45:33.542Z,9.00
2017-11-29T10:47:59.807Z,8.95
2017-11-29T10:50:26.081Z,11.32
2017-11-29T10:52:52.319Z,7.62
2017-11-29T10:55:18.622Z,8.60
2017-11-29T10:57:44.911Z,8.32
2017-11-29T11:00:11.212Z,8.68
2017-11-29T11:02:37.490Z,7.72
2017-11-29T11:05:03.756Z,13.95
2017-11-29T11:07:30.028Z,8.05
2017-11-29T11:09:56.286Z,9.57
2017-11-29T11:12:22.925Z,9.65
2017-11-29T11:14:49.185Z,10.43
2017-11-29T11:17:15.458Z,9.02
2017-11-29T11:19:41.756Z,9.40
2017-11-29T11:22:08.056Z,8.55
2017-11-29T11:24:34.363Z,8.85
2017-11-29T11:27:00.666Z,7.65
2017-11-29T11:29:26.989Z,6.90
2017-11-29T11:31:53.314Z,7.65
2017-11-29T11:34:19.605Z,8.15
2017-11-29T11:36:46.275Z,8.65
2017-11-29T11:39:12.553Z,7.53
2017-11-29T11:41:38.895Z,7.72
2017-11-29T11:44:06.624Z,7.85
2017-11-29T11:46:32.942Z,7.43
2017-11-29T11:48:59.189Z,7.07
2017-11-29T11:51:25.467Z,6.03
2017-11-29T11:53:51.761Z,6.47
2017-11-29T11:56:18.409Z,7.45
2017-11-29T11:58:44.687Z,6.62
2017-11-29T12:01:11.045Z,7.45
2017-11-29T12:03:37.337Z,6.35
2017-11-29T12:06:03.602Z,6.22
2017-11-29T12:08:29.916Z,6.25
2017-11-29T12:10:56.222Z,6.60
2017-11-29T12:13:22.482Z,5.43
2017-11-29T12:15:48.798Z,6.30
2017-11-29T12:18:15.134Z,6.18
2017-11-29T12:20:41.418Z,7.25
2017-11-29T12:23:08.041Z,7.70
2017-11-29T12:25:34.345Z,6.32
2017-11-29T12:28:00.650Z,6.65
2017-11-29T12:30:26.917Z,6.68
2017-11-29T12:32:53.201Z,6.97
2017-11-29T12:35:19.506Z,7.37
2017-11-29T12:37:45.829Z,8.00
2017-11-29T12:40:12.466Z,7.12
2017-11-29T12:42:39.289Z,7.15
2017-11-29T12:45:05.961Z,7.07
2017-11-29T12:47:36.174Z,18.67
2017-11-29T12:50:14.695Z,8.20
2017-11-29T12:52:41.038Z,7.82
2017-11-29T12:55:08.143Z,7.55
2017-11-29T12:57:34.403Z,8.27
2017-11-29T13:00:01.066Z,9.98
2017-11-29T13:02:27.319Z,7.22
2017-11-29T13:04:53.591Z,9.05
2017-11-29T13:07:20.201Z,8.85
2017-11-29T13:09:46.574Z,8.73
2017-11-29T13:12:12.813Z,9.48
2017-11-29T13:14:39.071Z,8.20
2017-11-29T13:17:05.344Z,8.40
2017-11-29T13:19:31.972Z,7.90
2017-11-29T13:21:58.631Z,8.40
2017-11-29T13:24:24.901Z,8.70
2017-11-29T13:26:51.271Z,8.10
2017-11-29T13:29:18.074Z,7.20
2017-11-29T13:31:44.382Z,7.55
2017-11-29T13:34:10.653Z,6.00
2017-11-29T13:36:37.028Z,6.25
2017-11-29T13:39:03.294Z,5.35
2017-11-29T13:41:29.570Z,7.05
2017-11-29T13:43:55.906Z,7.30
2017-11-29T13:46:22.598Z,6.47
2017-11-29T13:48:48.888Z,7.25
2017-11-29T13:51:15.211Z,8.13
2017-11-29T13:53:41.493Z,7.40
2017-11-29T13:56:07.766Z,6.75
2017-11-29T13:58:34.058Z,6.40
2017-11-29T14:01:00.353Z,7.53
2017-11-29T14:03:26.607Z,8.63
2017-11-29T14:05:52.914Z,5.95
2017-11-29T14:08:19.219Z,6.95
2017-11-29T14:10:45.493Z,9.40
2017-11-29T14:13:11.734Z,8.75
2017-11-29T14:15:37.998Z,9.57
2017-11-29T14:18:04.228Z,8.32
2017-11-29T14:20:30.469Z,7.82
2017-11-29T14:22:56.710Z,11.98
2017-11-29T14:25:22.967Z,7.22
2017-11-29T14:27:50.104Z,7.50
2017-11-29T14:30:16.343Z,7.70
2017-11-29T14:32:42.588Z,8.00
2017-11-29T14:35:08.856Z,7.35
2017-11-29T14:37:35.127Z,8.30
2017-11-29T14:40:01.379Z,8.07
2017-11-29T14:42:27.705Z,8.82
2017-11-29T14:44:54.252Z,7.55
2017-11-29T14:47:20.885Z,7.18
2017-11-29T14:49:47.500Z,7.95
2017-11-29T14:52:13.758Z,8.38
2017-11-29T14:54:40.350Z,8.50
2017-11-29T14:57:07.059Z,8.27
2017-11-29T14:59:33.376Z,6.45
2017-11-29T15:01:59.602Z,6.75
2017-11-29T15:04:25.825Z,8.63
2017-11-29T15:06:52.128Z,7.95
2017-11-29T15:09:18.767Z,6.12
2017-11-29T15:11:45.007Z,16.15
2017-11-29T15:14:11.268Z,18.27
2017-11-29T15:16:37.535Z,7.15
2017-11-29T15:19:03.772Z,7.30
2017-11-29T15:21:29.981Z,7.57
2017-11-29T15:23:56.231Z,7.60
2017-11-29T15:26:22.469Z,7.15
2017-11-29T15:28:48.739Z,6.65
2017-11-29T15:31:15.006Z,6.80
2017-11-29T15:33:41.286Z,6.40
2017-11-29T15:36:07.560Z,7.00
2017-11-29T15:38:33.835Z,12.80
2017-11-29T15:41:00.157Z,11.07
2017-11-29T15:43:26.795Z,10.05
2017-11-29T15:45:53.420Z,7.93
2017-11-29T15:48:19.762Z,7.97
2017-11-29T15:50:46.055Z,5.50
2017-11-29T15:53:12.330Z,5.85
2017-11-29T15:55:39.018Z,6.22
2017-11-29T15:58:05.354Z,6.62
2017-11-29T16:00:31.660Z,7.10
2017-11-29T16:02:57.944Z,6.72
2017-11-29T16:05:24.222Z,8.50
2017-11-29T16:07:50.566Z,7.40
2017-11-29T16:10:16.892Z,7.78
2017-11-29T16:12:43.297Z,8.73
2017-11-29T16:15:10.602Z,7.80
2017-11-29T16:17:36.957Z,8.70
2017-11-29T16:20:03.298Z,7.22
2017-11-29T16:22:29.924Z,7.37
2017-11-29T16:24:56.618Z,7.70
2017-11-29T16:27:22.925Z,6.60
2017-11-29T16:29:49.247Z,6.72
2017-11-29T16:32:15.528Z,11.48
2017-11-29T16:34:41.781Z,6.15
2017-11-29T16:37:08.437Z,5.57
2017-11-29T16:39:35.212Z,5.28
2017-11-29T16:42:01.484Z,6.82
2017-11-29T16:44:27.810Z,7.32
2017-11-29T16:46:54.063Z,6.45
2017-11-29T16:49:20.312Z,6.45
2017-11-29T16:51:46.555Z,7.00
2017-11-29T16:54:12.805Z,6.20
2017-11-29T16:56:39.105Z,6.22
2017-11-29T16:59:05.348Z,6.72
2017-11-29T17:01:31.611Z,6.37
2017-11-29T17:03:57.922Z,6.60
2017-11-29T17:06:24.166Z,8.35
2017-11-29T17:08:50.521Z,6.95
2017-11-29T17:11:16.882Z,9.13
2017-11-29T17:13:43.216Z,7.15
2017-11-29T17:16:09.507Z,7.47
2017-11-29T17:18:36.201Z,8.20
2017-11-29T17:21:02.594Z,9.73
2017-11-29T17:23:29.533Z,7.43
2017-11-29T17:25:55.804Z,7.47
2017-11-29T17:28:22.092Z,6.50
2017-11-29T17:30:48.366Z,6.28
2017-11-29T17:33:15.277Z,5.28
2017-11-29T17:35:41.578Z,4.68
2017-11-29T17:38:08.265Z,6.70
2017-11-29T17:40:34.896Z,5.37
2017-11-29T17:43:01.264Z,5.35
2017-11-29T17:45:27.525Z,5.10
2017-11-29T17:47:53.804Z,5.28
2017-11-29T17:50:20.063Z,6.12
2017-11-29T17:52:46.607Z,10.88
2017-11-29T17:55:13.279Z,17.87
2017-11-29T17:57:39.580Z,23.27
2017-11-29T18:00:06.293Z,6.40
2017-11-29T18:02:32.567Z,7.03
2017-11-29T18:04:58.865Z,6.85
2017-11-29T18:07:26.015Z,5.40
2017-11-29T18:09:52.308Z,6.80
2017-11-29T18:12:18.619Z,5.97
2017-11-29T18:14:44.916Z,5.70
2017-11-29T18:17:11.706Z,8.07
2017-11-29T18:19:38.015Z,6.95
2017-11-29T18:22:04.363Z,7.57
2017-11-29T18:24:30.733Z,5.85
2017-11-29T18:26:56.969Z,6.53
2017-11-29T18:29:23.327Z,5.32
2017-11-29T18:31:49.878Z,4.80
2017-11-29T18:34:16.151Z,5.07
2017-11-29T18:36:42.443Z,5.55
2017-11-29T18:39:08.784Z,5.28
2017-11-29T18:41:35.059Z,5.20
2017-11-29T18:44:01.751Z,4.82
2017-11-29T18:46:28.030Z,5.72
2017-11-29T18:48:54.352Z,7.32
2017-11-29T18:51:21.064Z,6.90
2017-11-29T18:53:47.378Z,6.30
2017-11-29T18:56:13.716Z,7.45
2017-11-29T18:58:39.952Z,9.25
2017-11-29T19:01:06.266Z,9.35
2017-11-29T19:03:32.542Z,8.32
2017-11-29T19:05:59.533Z,6.45
2017-11-29T19:08:25.839Z,7.45
2017-11-29T19:10:52.139Z,8.40
2017-11-29T19:13:18.442Z,8.50
2017-11-29T19:15:44.828Z,8.13
2017-11-29T19:18:11.125Z,7.85
2017-11-29T19:20:37.459Z,8.80
2017-11-29T19:23:03.741Z,8.60
2017-11-29T19:25:30.132Z,7.10
2017-11-29T19:27:56.465Z,7.85
2017-11-29T19:30:23.491Z,8.75
2017-11-29T19:32:49.795Z,9.00
2017-11-29T19:35:16.092Z,9.70
2017-11-29T19:37:42.440Z,9.95
2017-11-29T19:40:08.688Z,10.18
2017-11-29T19:42:35.032Z,12.13
2017-11-29T19:45:01.376Z,9.35
2017-11-29T19:47:27.667Z,9.52
2017-11-29T19:49:54.001Z,10.50
2017-11-29T19:52:20.396Z,10.35
2017-11-29T19:54:47.051Z,10.00
2017-11-29T19:57:13.389Z,10.50
2017-11-29T19:59:39.671Z,10.35
2017-11-29T20:02:06.349Z,18.80
2017-11-29T20:04:32.721Z,26.67
2017-11-29T20:06:59.110Z,21.67
2017-11-29T20:09:25.415Z,21.83
2017-11-29T20:11:52.156Z,15.27
2017-11-29T20:14:18.468Z,14.77
2017-11-29T20:16:44.777Z,14.00
2017-11-29T20:19:11.016Z,13.95
2017-11-29T20:21:37.335Z,14.98
2017-11-29T20:24:03.654Z,16.35
2017-11-29T20:26:29.953Z,18.67
2017-11-29T20:28:56.276Z,15.70
2017-11-29T20:31:22.591Z,17.83
2017-11-29T20:33:48.894Z,16.30
2017-11-29T20:36:15.186Z,14.00
2017-11-29T20:38:41.461Z,12.32
2017-11-29T20:41:07.745Z,11.05
2017-11-29T20:43:34.042Z,11.68
2017-11-29T20:46:00.412Z,13.90
2017-11-29T20:48:26.646Z,15.05
2017-11-29T20:50:52.991Z,13.65
2017-11-29T20:53:19.253Z,14.85
2017-11-29T20:55:45.960Z,15.02
2017-11-29T20:58:12.256Z,16.12
2017-11-29T21:00:38.612Z,15.98
2017-11-29T21:03:04.940Z,14.45
2017-11-29T21:05:31.208Z,15.77
2017-11-29T21:07:57.845Z,17.23
2017-11-29T21:10:24.113Z,14.75
2017-11-29T21:12:50.445Z,14.40
2017-11-29T21:15:16.773Z,16.00
2017-11-29T21:17:43.151Z,15.80
2017-11-29T21:20:09.468Z,15.02
2017-11-29T21:22:35.837Z,14.55
2017-11-29T21:25:02.543Z,18.37
2017-11-29T21:27:28.906Z,19.27
2017-11-29T21:29:55.570Z,19.08
2017-11-29T21:32:21.921Z,19.48
2017-11-29T21:34:48.212Z,18.42
2017-11-29T21:37:14.836Z,18.85
2017-11-29T21:39:41.458Z,20.05
2017-11-29T21:42:08.110Z,18.35
2017-11-29T21:44:34.769Z,16.83
2017-11-29T21:47:01.022Z,17.45
2017-11-29T21:49:27.289Z,15.52
2017-11-29T21:51:53.911Z,16.42
2017-11-29T21:54:20.194Z,19.73
2017-11-29T21:56:46.506Z,16.70
2017-11-29T21:59:13.165Z,19.50
2017-11-29T22:01:39.755Z,23.38
2017-11-29T22:04:05.998Z,20.55
2017-11-29T22:06:32.648Z,18.23
2017-11-29T22:08:59.277Z,18.73
2017-11-29T22:11:25.934Z,18.67
2017-11-29T22:13:52.207Z,20.02
2017-11-29T22:16:18.466Z,17.67
2017-11-29T22:18:44.695Z,15.40
2017-11-29T22:21:11.764Z,19.00
2017-11-29T22:23:38.192Z,17.23
2017-11-29T22:26:04.933Z,16.25
2017-11-29T22:28:31.700Z,16.60
2017-11-29T22:30:58.069Z,19.10
2017-11-29T22:33:24.437Z,20.52
2017-11-29T22:35:51.225Z,17.15
2017-11-29T22:38:17.570Z,16.25
2017-11-29T22:40:43.963Z,16.37
2017-11-29T22:43:10.277Z,16.80
2017-11-29T22:45:36.548Z,17.40
2017-11-29T22:48:02.828Z,16.25
2017-11-29T22:50:29.427Z,14.57
2017-11-29T22:52:55.679Z,15.02
2017-11-29T22:55:22.373Z,14.15
2017-11-29T22:57:48.644Z,13.62
2017-11-29T23:00:26.498Z,14.35
2017-11-29T23:02:52.774Z,16.40
2017-11-29T23:05:19.035Z,16.30
2017-11-29T23:07:45.289Z,13.13
2017-11-29T23:10:11.547Z,14.00
2017-11-29T23:12:37.811Z,12.25
2017-11-29T23:15:04.431Z,13.68
2017-11-29T23:17:31.080Z,14.50
2017-11-29T23:19:57.683Z,15.18
2017-11-29T23:22:23.915Z,14.32
2017-11-29T23:24:50.184Z,15.43
2017-11-29T23:27:16.441Z,14.70
2017-11-29T23:29:42.754Z,16.62
2017-11-29T23:32:08.978Z,16.40
2017-11-29T23:34:35.342Z,16.80
2017-11-29T23:37:01.622Z,19.02
2017-11-29T23:39:27.871Z,19.25
2017-11-29T23:41:54.119Z,15.98
2017-11-29T23:44:20.395Z,17.52
2017-11-29T23:46:47.045Z,16.25
2017-11-29T23:49:13.687Z,18.75
2017-11-29T23:51:40.338Z,18.48
2017-11-29T23:54:06.581Z,18.83
2017-11-29T23:56:32.806Z,16.33
2017-11-29T23:58:59.033Z,16.10
